createdAt,value
2019-05-28T00:00:23.768Z,101166.25
2019-05-28T00:02:54.903Z,101177.70
2019-05-28T00:05:28.713Z,101173.41
2019-05-28T00:08:00.503Z,101169.41
2019-05-28T00:10:34.717Z,101172.16
2019-05-28T00:13:06.746Z,101170.23
2019-05-28T00:15:38.302Z,101181.69
2019-05-28T00:18:13.236Z,101181.53
2019-05-28T00:20:44.889Z,101188.95
2019-05-28T00:23:17.360Z,101182.77
2019-05-28T00:25:49.828Z,101183.09
2019-05-28T00:28:23.223Z,101187.31
2019-05-28T00:30:57.431Z,101183.50
2019-05-28T00:33:30.055Z,101190.05
2019-05-28T00:36:04.947Z,101184.74
2019-05-28T00:38:36.702Z,101190.01
2019-05-28T00:41:09.954Z,101190.50
2019-05-28T00:43:41.852Z,101195.09
2019-05-28T00:46:14.839Z,101195.06
2019-05-28T00:48:48.437Z,101196.33
2019-05-28T00:51:20.810Z,101198.21
2019-05-28T00:53:52.267Z,101195.03
2019-05-28T00:56:27.095Z,101198.47
2019-05-28T00:59:01.915Z,101199.45
2019-05-28T01:01:33.569Z,101198.37
2019-05-28T01:04:06.553Z,101196.50
2019-05-28T01:06:37.862Z,101196.86
2019-05-28T01:09:11.297Z,101193.92
2019-05-28T01:11:43.468Z,101193.16
2019-05-28T01:14:15.713Z,101190.65
2019-05-28T01:16:47.486Z,101188.34
2019-05-28T01:19:19.246Z,101192.56
2019-05-28T01:21:51.001Z,101195.03
2019-05-28T01:24:22.789Z,101194.95
2019-05-28T01:26:54.511Z,101198.77
2019-05-28T01:29:26.187Z,101202.25
2019-05-28T01:31:58.742Z,101195.94
2019-05-28T01:34:31.614Z,101192.28
2019-05-28T01:37:05.383Z,101191.59
2019-05-28T01:39:37.715Z,101202.78
2019-05-28T01:42:09.610Z,101202.98
2019-05-28T01:44:42.644Z,101198.72
2019-05-28T01:47:14.337Z,101201.03
2019-05-28T01:49:46.722Z,101203.73
2019-05-28T01:52:18.592Z,101197.19
2019-05-28T01:54:52.889Z,101195.78
2019-05-28T01:57:25.291Z,101193.48
2019-05-28T01:59:57.944Z,101195.73
2019-05-28T02:02:29.783Z,101194.03
2019-05-28T02:05:02.252Z,101202.80
2019-05-28T02:07:35.380Z,101200.55
2019-05-28T02:10:07.911Z,101202.89
2019-05-28T02:12:42.161Z,101202.98
2019-05-28T02:15:16.679Z,101209.70
2019-05-28T02:17:49.133Z,101203.34
2019-05-28T02:20:20.835Z,101210.11
2019-05-28T02:22:52.612Z,101210.28
2019-05-28T02:25:24.575Z,101208.67
2019-05-28T02:27:56.744Z,101210.28
2019-05-28T02:30:28.702Z,101201.95
2019-05-28T02:33:01.378Z,101210.98
2019-05-28T02:35:33.022Z,101215.75
2019-05-28T02:38:07.327Z,101212.47
2019-05-28T02:40:41.378Z,101214.27
2019-05-28T02:43:14.177Z,101214.91
2019-05-28T02:45:46.188Z,101221.41
2019-05-28T02:48:18.269Z,101217.38
2019-05-28T02:50:57.440Z,101211.30
2019-05-28T02:53:31.957Z,101206.95
2019-05-28T02:56:03.580Z,101214.98
2019-05-28T02:58:36.488Z,101219.80
2019-05-28T03:01:08.461Z,101222.61
2019-05-28T03:03:41.038Z,101222.61
2019-05-28T03:06:15.103Z,101224.91
2019-05-28T03:08:48.701Z,101226.11
2019-05-28T03:11:20.423Z,101229.33
2019-05-28T03:13:52.694Z,101224.01
2019-05-28T03:16:27.380Z,101228.31
2019-05-28T03:19:01.242Z,101228.80
2019-05-28T03:21:35.266Z,101230.66
2019-05-28T03:24:08.395Z,101228.27
2019-05-28T03:26:39.803Z,101235.59
2019-05-28T03:29:12.475Z,101233.19
2019-05-28T03:32:02.748Z,101233.30
2019-05-28T03:34:16.974Z,101233.14
2019-05-28T03:36:55.372Z,101238.72
2019-05-28T03:39:29.756Z,101234.72
2019-05-28T03:42:01.728Z,101235.64
2019-05-28T03:44:35.748Z,101235.41
2019-05-28T03:47:08.827Z,101235.01
2019-05-28T03:49:40.305Z,101239.66
2019-05-28T03:52:12.294Z,101237.19
2019-05-28T03:54:45.776Z,101237.86
2019-05-28T03:57:18.334Z,101240.53
2019-05-28T03:59:50.237Z,101247.77
2019-05-28T04:02:23.797Z,101240.28
2019-05-28T04:04:55.075Z,101242.67
2019-05-28T04:07:26.904Z,101239.75
2019-05-28T04:09:59.770Z,101241.28
2019-05-28T04:12:32.005Z,101242.28
2019-05-28T04:15:04.478Z,101242.16
2019-05-28T04:17:38.894Z,101242.88
2019-05-28T04:20:12.708Z,101251.70
2019-05-28T04:22:44.725Z,101248.04
2019-05-28T04:25:18.622Z,101252.86
2019-05-28T04:27:50.660Z,101257.45
2019-05-28T04:30:24.639Z,101255.01
2019-05-28T04:32:58.629Z,101260.41
2019-05-28T04:35:30.202Z,101262.49
2019-05-28T04:38:03.010Z,101266.22
2019-05-28T04:40:36.382Z,101259.48
2019-05-28T04:43:09.710Z,101266.64
2019-05-28T04:45:41.338Z,101269.75
2019-05-28T04:48:14.819Z,101265.59
2019-05-28T04:50:47.509Z,101275.81
2019-05-28T04:53:19.153Z,101274.44
2019-05-28T04:55:52.880Z,101275.33
2019-05-28T04:58:26.860Z,101279.91
2019-05-28T05:00:58.519Z,101277.10
2019-05-28T05:03:30.176Z,101283.37
2019-05-28T05:06:01.971Z,101281.47
2019-05-28T05:08:33.888Z,101273.86
2019-05-28T05:11:05.765Z,101278.14
2019-05-28T05:13:37.375Z,101276.47
2019-05-28T05:16:09.958Z,101282.16
2019-05-28T05:18:42.991Z,101278.49
2019-05-28T05:21:14.617Z,101277.34
2019-05-28T05:23:46.475Z,101276.27
2019-05-28T05:26:18.089Z,101283.63
2019-05-28T05:28:49.989Z,101289.27
2019-05-28T05:31:23.103Z,101285.86
2019-05-28T05:33:57.083Z,101286.67
2019-05-28T05:36:29.667Z,101285.53
2019-05-28T05:39:01.738Z,101296.28
2019-05-28T05:41:34.708Z,101290.86
2019-05-28T05:44:10.363Z,101289.42
2019-05-28T05:46:42.320Z,101293.91
2019-05-28T05:49:13.840Z,101295.01
2019-05-28T05:51:46.073Z,101298.08
2019-05-28T05:54:17.899Z,101290.09
2019-05-28T05:56:51.092Z,101290.61
2019-05-28T05:59:22.648Z,101295.13
2019-05-28T06:01:55.193Z,101287.19
2019-05-28T06:04:27.037Z,101287.39
2019-05-28T06:06:58.685Z,101295.30
2019-05-28T06:09:31.008Z,101297.75
2019-05-28T06:12:04.289Z,101295.69
2019-05-28T06:14:38.078Z,101307.86
2019-05-28T06:17:09.778Z,101302.94
2019-05-28T06:19:42.183Z,101303.63
2019-05-28T06:22:13.690Z,101305.55
2019-05-28T06:24:45.838Z,101285.08
2019-05-28T06:27:19.499Z,101307.23
2019-05-28T06:29:51.026Z,101310.58
2019-05-28T06:32:24.686Z,101310.84
2019-05-28T06:34:56.424Z,101309.52
2019-05-28T06:37:28.100Z,101310.78
2019-05-28T06:39:59.856Z,101311.93
2019-05-28T06:42:36.288Z,101306.66
2019-05-28T06:45:07.881Z,101316.62
2019-05-28T06:47:44.930Z,101311.55
2019-05-28T06:50:16.033Z,101320.41
2019-05-28T06:52:47.547Z,101321.03
2019-05-28T06:55:19.006Z,101318.89
2019-05-28T06:57:51.548Z,101318.27
2019-05-28T07:00:23.339Z,101313.40
2019-05-28T07:02:54.638Z,101316.43
2019-05-28T07:05:26.532Z,101311.47
2019-05-28T07:07:58.703Z,101300.38
2019-05-28T07:10:32.520Z,101302.39
2019-05-28T07:13:03.242Z,101308.19
2019-05-28T07:15:34.706Z,101308.89
2019-05-28T07:18:08.734Z,101306.84
2019-05-28T07:20:41.075Z,101301.75
2019-05-28T07:23:12.835Z,101305.14
2019-05-28T07:25:44.641Z,101307.98
2019-05-28T07:28:18.913Z,101309.55
2019-05-28T07:30:53.215Z,101306.83
2019-05-28T07:33:24.886Z,101305.99
2019-05-28T07:35:56.608Z,101302.71
2019-05-28T07:38:28.254Z,101295.26
2019-05-28T07:40:59.706Z,101267.36
2019-05-28T07:43:32.309Z,101299.55
2019-05-28T07:46:03.916Z,101302.35
2019-05-28T07:48:35.618Z,101302.67
2019-05-28T07:51:07.396Z,101300.85
2019-05-28T07:53:40.594Z,101298.66
2019-05-28T07:56:12.565Z,101309.38
2019-05-28T07:58:45.674Z,101305.80
2019-05-28T08:01:16.964Z,101308.95
2019-05-28T08:03:48.816Z,101309.39
2019-05-28T08:06:20.224Z,101304.81
2019-05-28T08:08:54.002Z,101298.49
2019-05-28T08:11:26.002Z,101306.40
2019-05-28T08:13:58.440Z,101300.95
2019-05-28T08:16:30.420Z,101299.52
2019-05-28T08:19:02.791Z,101299.20
2019-05-28T08:21:36.601Z,101294.33
2019-05-28T08:24:09.592Z,101293.81
2019-05-28T08:26:45.421Z,101295.63
2019-05-28T08:29:18.397Z,101299.34
2019-05-28T08:31:54.790Z,101292.06
2019-05-28T08:34:30.363Z,101289.04
2019-05-28T08:37:06.551Z,101290.59
2019-05-28T08:39:38.705Z,101291.40
2019-05-28T08:42:13.750Z,101297.84
2019-05-28T08:44:45.399Z,101298.01
2019-05-28T08:47:16.749Z,101292.58
2019-05-28T08:49:49.315Z,101298.44
2019-05-28T08:52:23.439Z,101306.19
2019-05-28T08:54:56.006Z,101295.82
2019-05-28T08:57:27.664Z,101303.20
2019-05-28T08:59:59.050Z,101292.97
2019-05-28T09:02:31.481Z,101291.07
2019-05-28T09:05:24.655Z,101296.69
2019-05-28T09:07:38.164Z,101291.30
2019-05-28T09:10:10.801Z,101294.20
2019-05-28T09:12:44.606Z,101295.70
2019-05-28T09:15:16.343Z,101282.84
2019-05-28T09:17:48.208Z,101283.69
2019-05-28T09:20:21.365Z,101284.66
2019-05-28T09:22:52.707Z,101285.55
2019-05-28T09:25:24.676Z,101279.38
2019-05-28T09:27:55.827Z,101280.46
2019-05-28T09:30:29.434Z,101274.81
2019-05-28T09:33:01.064Z,101279.58
2019-05-28T09:35:44.041Z,101277.78
2019-05-28T09:38:06.103Z,101273.64
2019-05-28T09:40:49.238Z,101281.69
2019-05-28T09:43:11.880Z,101275.41
2019-05-28T09:45:43.532Z,101274.23
2019-05-28T09:48:17.028Z,101270.13
2019-05-28T09:50:51.954Z,101265.30
2019-05-28T09:53:23.515Z,101266.74
2019-05-28T09:55:55.364Z,101269.42
2019-05-28T09:58:27.016Z,101261.62
2019-05-28T10:00:59.234Z,101263.90
2019-05-28T10:03:31.141Z,101263.53
2019-05-28T10:06:16.156Z,101260.33
2019-05-28T10:08:37.322Z,101251.23
2019-05-28T10:11:09.180Z,101245.36
2019-05-28T10:13:42.096Z,101254.26
2019-05-28T10:16:12.707Z,101246.22
2019-05-28T10:18:45.174Z,101248.77
2019-05-28T10:21:18.893Z,101259.16
2019-05-28T10:23:51.628Z,101248.73
2019-05-28T10:26:23.821Z,101248.13
2019-05-28T10:28:57.130Z,101251.22
2019-05-28T10:31:31.134Z,101245.27
2019-05-28T10:34:04.735Z,101245.92
2019-05-28T10:36:38.127Z,101232.57
2019-05-28T10:39:10.183Z,101238.19
2019-05-28T10:41:41.759Z,101235.31
2019-05-28T10:44:13.393Z,101233.34
2019-05-28T10:46:45.192Z,101232.84
2019-05-28T10:49:16.813Z,101226.16
2019-05-28T10:51:49.885Z,101229.80
2019-05-28T10:54:22.141Z,101211.59
2019-05-28T10:56:54.514Z,101213.92
2019-05-28T10:59:26.170Z,101210.74
2019-05-28T11:01:58.010Z,101208.45
2019-05-28T11:04:30.365Z,101213.17
2019-05-28T11:07:02.517Z,101199.40
2019-05-28T11:09:34.848Z,101203.36
2019-05-28T11:12:07.419Z,101204.59
2019-05-28T11:14:39.038Z,101197.61
2019-05-28T11:17:13.941Z,101188.85
2019-05-28T11:19:45.179Z,101200.34
2019-05-28T11:22:18.748Z,101196.13
2019-05-28T11:24:50.508Z,101165.29
2019-05-28T11:27:24.442Z,101184.52
2019-05-28T11:29:56.072Z,101185.41
2019-05-28T11:32:27.512Z,101180.58
2019-05-28T11:34:58.969Z,101183.98
2019-05-28T11:37:31.338Z,101184.49
2019-05-28T11:40:04.013Z,101148.59
2019-05-28T11:42:36.682Z,101173.21
2019-05-28T11:45:09.339Z,101171.09
2019-05-28T11:47:50.391Z,101178.41
2019-05-28T11:50:20.168Z,101167.75
2019-05-28T11:52:51.909Z,101169.70
2019-05-28T11:55:23.563Z,101172.80
2019-05-28T11:57:58.766Z,101165.44
2019-05-28T12:00:32.092Z,101165.55
2019-05-28T12:03:04.696Z,101160.79
2019-05-28T12:05:36.112Z,101166.33
2019-05-28T12:08:08.087Z,101162.59
2019-05-28T12:10:40.161Z,101164.06
2019-05-28T12:13:12.398Z,101163.51
2019-05-28T12:15:44.200Z,101166.12
2019-05-28T12:18:16.771Z,101160.69
2019-05-28T12:20:48.319Z,101151.38
2019-05-28T12:23:19.852Z,101158.92
2019-05-28T12:25:53.143Z,101146.02
2019-05-28T12:28:37.837Z,101150.61
2019-05-28T12:31:00.190Z,101146.84
2019-05-28T12:33:36.311Z,101140.16
2019-05-28T12:36:10.446Z,101145.94
2019-05-28T12:38:43.348Z,101134.95
2019-05-28T12:41:16.741Z,101137.83
2019-05-28T12:43:48.396Z,101134.81
2019-05-28T12:46:20.220Z,101141.05
2019-05-28T12:48:53.546Z,101139.16
2019-05-28T12:51:27.508Z,101131.90
2019-05-28T12:53:59.207Z,101124.70
2019-05-28T12:56:31.013Z,101126.24
2019-05-28T12:59:04.697Z,101120.89
2019-05-28T13:01:40.059Z,101128.02
2019-05-28T13:04:12.174Z,101130.22
2019-05-28T13:06:45.178Z,101130.22
2019-05-28T13:09:17.897Z,101122.34
2019-05-28T13:11:49.619Z,101118.16
2019-05-28T13:14:21.423Z,101114.20
2019-05-28T13:16:55.825Z,101122.69
2019-05-28T13:19:28.431Z,101112.48
2019-05-28T13:22:02.421Z,101111.05
2019-05-28T13:24:33.969Z,101117.50
2019-05-28T13:27:17.508Z,101108.53
2019-05-28T13:29:41.371Z,101102.33
2019-05-28T13:32:14.076Z,101095.98
2019-05-28T13:34:45.920Z,101096.92
2019-05-28T13:37:18.908Z,101097.98
2019-05-28T13:39:54.160Z,101093.63
2019-05-28T13:42:26.734Z,101100.41
2019-05-28T13:44:59.748Z,101094.30
2019-05-28T13:47:34.507Z,101092.55
2019-05-28T13:50:08.467Z,101099.48
2019-05-28T13:52:39.781Z,101091.98
2019-05-28T13:55:12.981Z,101097.08
2019-05-28T13:57:44.338Z,101091.16
2019-05-28T14:00:20.477Z,101079.64
2019-05-28T14:02:52.385Z,101079.86
2019-05-28T14:05:24.098Z,101084.92
2019-05-28T14:07:56.168Z,101082.98
2019-05-28T14:10:28.324Z,101076.93
2019-05-28T14:12:59.895Z,101074.36
2019-05-28T14:15:31.589Z,101073.81
2019-05-28T14:18:03.070Z,101068.86
2019-05-28T14:20:37.393Z,101076.17
2019-05-28T14:23:09.570Z,101070.27
2019-05-28T14:25:45.573Z,101067.39
2019-05-28T14:28:16.968Z,101054.84
2019-05-28T14:30:59.913Z,101063.78
2019-05-28T14:33:24.176Z,101057.59
2019-05-28T14:35:55.657Z,101060.50
2019-05-28T14:38:27.134Z,101059.76
2019-05-28T14:41:01.141Z,101054.52
2019-05-28T14:43:33.755Z,101052.86
2019-05-28T14:46:05.204Z,101047.64
2019-05-28T14:48:39.038Z,101057.10
2019-05-28T14:51:10.878Z,101050.45
2019-05-28T14:53:44.143Z,101056.17
2019-05-28T14:56:16.530Z,101050.30
2019-05-28T14:58:48.005Z,101052.00
2019-05-28T15:01:20.043Z,101048.03
2019-05-28T15:03:52.460Z,101043.66
2019-05-28T15:06:23.971Z,101058.88
2019-05-28T15:08:56.750Z,101045.67
2019-05-28T15:11:29.652Z,101039.52
2019-05-28T15:14:00.503Z,101048.68
2019-05-28T15:16:32.429Z,101049.59
2019-05-28T15:19:05.114Z,101040.14
2019-05-28T15:21:38.521Z,101040.67
2019-05-28T15:24:10.259Z,101037.37
2019-05-28T15:26:43.139Z,101045.90
2019-05-28T15:29:16.150Z,101045.88
2019-05-28T15:31:47.641Z,101041.30
2019-05-28T15:34:19.762Z,101035.08
2019-05-28T15:36:51.957Z,101035.08
2019-05-28T15:39:39.051Z,101049.45
2019-05-28T15:41:57.273Z,101046.23
2019-05-28T15:44:28.817Z,101047.95
2019-05-28T15:47:00.679Z,101045.91
2019-05-28T15:49:35.433Z,101039.84
2019-05-28T15:52:08.387Z,101042.97
2019-05-28T15:54:41.506Z,101026.32
2019-05-28T15:57:13.200Z,101041.39
2019-05-28T15:59:47.464Z,101040.86
2019-05-28T16:02:19.144Z,101034.13
2019-05-28T16:04:52.801Z,101035.38
2019-05-28T16:07:24.463Z,101024.95
2019-05-28T16:09:56.751Z,101027.17
2019-05-28T16:12:29.098Z,101033.61
2019-05-28T16:15:02.092Z,101028.97
2019-05-28T16:17:35.579Z,101028.95
2019-05-28T16:20:08.587Z,101024.47
2019-05-28T16:22:41.778Z,101021.11
2019-05-28T16:25:15.676Z,101025.28
2019-05-28T16:27:47.539Z,101020.66
2019-05-28T16:30:23.385Z,101012.73
2019-05-28T16:32:54.820Z,101015.47
2019-05-28T16:35:26.275Z,101016.17
2019-05-28T16:38:03.562Z,101017.99
2019-05-28T16:40:35.116Z,101015.91
2019-05-28T16:43:09.051Z,101012.33
2019-05-28T16:45:43.852Z,101011.50
2019-05-28T16:48:15.715Z,101027.33
2019-05-28T16:50:49.818Z,101024.63
2019-05-28T16:53:21.998Z,101027.30
2019-05-28T16:55:55.072Z,101025.02
2019-05-28T16:58:26.721Z,101016.33
2019-05-28T17:01:21.237Z,101019.91
2019-05-28T17:03:35.082Z,101012.91
2019-05-28T17:06:06.783Z,101019.75
2019-05-28T17:08:40.458Z,101015.38
2019-05-28T17:11:11.749Z,101009.89
2019-05-28T17:13:48.276Z,101020.81
2019-05-28T17:16:17.511Z,101013.17
2019-05-28T17:18:51.353Z,101025.09
2019-05-28T17:21:25.262Z,101026.91
2019-05-28T17:23:59.449Z,101023.41
2019-05-28T17:26:33.875Z,101026.33
2019-05-28T17:29:06.356Z,100990.05
2019-05-28T17:31:41.303Z,101032.02
2019-05-28T17:34:13.217Z,101029.79
2019-05-28T17:36:47.781Z,101040.69
2019-05-28T17:39:19.569Z,101039.35
2019-05-28T17:41:51.472Z,101051.11
2019-05-28T17:44:23.579Z,101038.11
2019-05-28T17:46:57.338Z,101036.76
2019-05-28T17:49:29.103Z,101031.73
2019-05-28T17:52:01.167Z,101035.14
2019-05-28T17:54:33.116Z,101039.75
2019-05-28T17:57:06.450Z,101035.56
2019-05-28T17:59:39.804Z,101039.29
2019-05-28T18:02:11.462Z,101037.05
2019-05-28T18:04:43.608Z,101041.05
2019-05-28T18:07:15.390Z,101048.72
2019-05-28T18:09:47.146Z,101051.86
2019-05-28T18:12:19.002Z,101057.58
2019-05-28T18:14:50.937Z,101057.55
2019-05-28T18:17:26.000Z,101058.72
2019-05-28T18:19:58.366Z,101060.13
2019-05-28T18:22:32.789Z,101058.16
2019-05-28T18:25:07.371Z,101059.02
2019-05-28T18:27:40.401Z,101061.04
2019-05-28T18:30:16.442Z,101074.91
2019-05-28T18:32:49.440Z,101063.33
2019-05-28T18:35:22.735Z,101059.93
2019-05-28T18:38:03.222Z,101068.97
2019-05-28T18:40:29.013Z,101066.16
2019-05-28T18:43:02.199Z,101075.80
2019-05-28T18:45:33.760Z,101073.80
2019-05-28T18:48:05.997Z,101066.99
2019-05-28T18:50:38.016Z,101072.64
2019-05-28T18:53:10.580Z,101070.08
2019-05-28T18:55:43.440Z,101075.73
2019-05-28T18:58:15.897Z,101070.37
2019-05-28T19:00:49.727Z,101074.02
2019-05-28T19:03:21.675Z,101068.08
2019-05-28T19:05:55.275Z,101069.75
2019-05-28T19:08:27.345Z,101078.23
2019-05-28T19:10:59.195Z,101081.03
2019-05-28T19:13:31.129Z,101078.20
2019-05-28T19:16:04.268Z,101077.64
2019-05-28T19:18:35.696Z,101070.78
2019-05-28T19:21:09.913Z,101077.28
2019-05-28T19:23:42.615Z,101073.28
2019-05-28T19:26:15.504Z,101071.02
2019-05-28T19:28:46.626Z,101070.69
2019-05-28T19:31:18.374Z,101069.55
2019-05-28T19:33:51.988Z,101063.89
2019-05-28T19:36:25.838Z,101067.52
2019-05-28T19:38:58.498Z,101060.73
2019-05-28T19:41:31.229Z,101062.14
2019-05-28T19:44:04.939Z,101064.07
2019-05-28T19:46:36.180Z,101075.92
2019-05-28T19:49:08.490Z,101074.17
2019-05-28T19:51:40.515Z,101071.05
2019-05-28T19:54:15.547Z,101073.56
2019-05-28T19:56:47.208Z,101070.70
2019-05-28T19:59:18.960Z,101073.52
2019-05-28T20:01:50.612Z,101071.52
2019-05-28T20:04:22.576Z,101076.51
2019-05-28T20:06:55.829Z,101078.19
2019-05-28T20:09:30.230Z,101083.83
2019-05-28T20:12:12.027Z,101081.27
2019-05-28T20:19:40.890Z,101075.83
2019-05-28T20:22:12.997Z,101084.00
2019-05-28T20:24:45.470Z,101080.03
2019-05-28T20:27:17.183Z,101092.66
2019-05-28T20:29:50.478Z,101080.79
2019-05-28T20:32:22.136Z,101085.50
2019-05-28T20:34:55.642Z,101093.11
2019-05-28T20:37:29.642Z,101096.68
2019-05-28T20:40:02.213Z,101098.33
2019-05-28T20:42:35.749Z,101103.38
2019-05-28T20:45:12.133Z,101102.47
2019-05-28T20:47:44.809Z,101095.67
2019-05-28T20:50:16.748Z,101097.64
2019-05-28T20:52:48.274Z,101094.80
2019-05-28T20:55:20.269Z,101094.17
2019-05-28T20:57:53.377Z,101087.41
2019-05-28T21:00:25.537Z,101089.38
2019-05-28T21:02:59.421Z,101082.84
2019-05-28T21:05:32.053Z,101089.04
2019-05-28T21:08:05.367Z,101075.20
2019-05-28T21:10:38.971Z,101077.17
2019-05-28T21:13:12.670Z,101075.95
2019-05-28T21:15:44.770Z,101069.45
2019-05-28T21:18:16.390Z,101068.00
2019-05-28T21:20:52.170Z,101075.04
2019-05-28T21:23:26.446Z,101082.30
2019-05-28T21:25:58.454Z,101082.64
2019-05-28T21:28:31.702Z,101084.00
2019-05-28T21:31:03.259Z,101082.25
2019-05-28T21:33:34.985Z,101077.37
2019-05-28T21:36:07.385Z,101076.47
2019-05-28T21:38:38.837Z,101079.02
2019-05-28T21:41:14.170Z,101078.33
2019-05-28T21:43:47.082Z,101076.28
2019-05-28T21:46:20.032Z,101083.23
2019-05-28T21:48:52.358Z,101084.86
2019-05-28T21:51:25.400Z,101078.50
2019-05-28T21:53:57.048Z,101082.70
2019-05-28T21:56:29.319Z,101081.55
2019-05-28T21:59:03.703Z,101085.36
2019-05-28T22:01:37.201Z,101084.48
2019-05-28T22:04:10.169Z,101082.36
2019-05-28T22:06:41.666Z,101087.11
2019-05-28T22:09:13.220Z,101088.48
2019-05-28T22:11:45.214Z,101084.17
2019-05-28T22:14:17.553Z,101081.61
2019-05-28T22:16:49.550Z,101085.54
2019-05-28T22:19:21.002Z,101084.69
2019-05-28T22:21:56.318Z,101086.03
2019-05-28T22:24:27.986Z,101082.92
2019-05-28T22:27:00.434Z,101079.81
2019-05-28T22:29:32.475Z,101075.20
2019-05-28T22:32:05.272Z,101083.90
2019-05-28T22:34:36.610Z,101072.62
2019-05-28T22:37:09.614Z,101080.36
2019-05-28T22:39:43.718Z,101073.04
2019-05-28T22:42:18.037Z,101076.38
2019-05-28T22:44:51.228Z,101079.97
2019-05-28T22:47:25.745Z,101076.75
2019-05-28T22:50:14.425Z,101078.09
2019-05-28T22:52:33.539Z,101082.20
2019-05-28T22:55:09.310Z,101076.24
2019-05-28T22:57:42.224Z,101075.88
2019-05-28T23:00:15.112Z,101074.02
2019-05-28T23:02:50.253Z,101081.56
2019-05-28T23:05:25.351Z,101080.67
2019-05-28T23:07:59.335Z,101076.76
2019-05-28T23:10:34.289Z,101079.12
2019-05-28T23:13:06.971Z,101072.91
2019-05-28T23:15:40.359Z,101073.42
2019-05-28T23:18:13.864Z,101072.31
2019-05-28T23:20:48.788Z,101074.53
2019-05-28T23:23:20.616Z,101068.31
2019-05-28T23:25:55.779Z,101063.44
2019-05-28T23:28:28.254Z,101066.23
2019-05-28T23:30:59.911Z,101065.09
2019-05-28T23:33:33.957Z,101061.17
2019-05-28T23:36:08.602Z,101063.34
2019-05-28T23:38:40.402Z,101063.48
2019-05-28T23:41:13.433Z,101063.70
2019-05-28T23:43:45.146Z,101061.66
2019-05-28T23:46:18.345Z,101069.02
2019-05-28T23:48:51.628Z,101061.84
2019-05-28T23:51:23.157Z,101057.84
2019-05-28T23:53:54.784Z,101058.34
2019-05-28T23:56:26.497Z,101064.69
2019-05-28T23:58:59.880Z,101066.95
